Time;durP1;ratioP1;P1;durP2;ratioP2;P2;SDS_P1;SDS_P2;PMS_P1;PMS_P2;Temp;Humidity;BMP_temperature;BMP_pressure;BME280_temperature;BME280_humidity;BME280_pressure;Samples;Min_cycle;Max_cycle;Signal;HPM_P1;HPM_P2
2023/06/07 00:00:44;;;;;;;3.08;2.47;;;;;;;17.20;100.00;100076.00;6269786;28;20136;-70
2023/06/07 00:03:47;;;;;;;4.13;2.70;;;;;;;17.07;100.00;100068.31;6269345;28;20143;-71
2023/06/07 00:06:48;;;;;;;4.15;2.30;;;;;;;17.15;100.00;100071.13;6270994;28;20068;-71
2023/06/07 00:09:50;;;;;;;2.53;2.23;;;;;;;17.14;100.00;100071.28;6269598;28;20060;-70
2023/06/07 00:12:51;;;;;;;3.28;2.30;;;;;;;17.15;100.00;100063.19;6267117;28;20040;-70
2023/06/07 00:15:52;;;;;;;5.97;2.53;;;;;;;17.18;100.00;100070.84;6252954;28;20508;-70
2023/06/07 00:18:52;;;;;;;4.72;2.30;;;;;;;17.20;100.00;100070.72;6265494;28;20049;-70
2023/06/07 00:21:53;;;;;;;2.85;2.40;;;;;;;17.16;100.00;100070.16;6270798;28;20048;-70
2023/06/07 00:24:57;;;;;;;4.60;2.42;;;;;;;17.12;100.00;100072.22;6250110;28;20118;-70
2023/06/07 00:27:57;;;;;;;4.45;2.20;;;;;;;17.06;100.00;100069.31;6250533;28;20072;-70
2023/06/07 00:30:58;;;;;;;2.57;2.20;;;;;;;17.11;100.00;100075.00;6269640;28;20544;-70
2023/06/07 00:34:01;;;;;;;4.75;2.70;;;;;;;17.12;100.00;100071.41;6268875;28;20049;-71
2023/06/07 00:37:02;;;;;;;4.32;2.20;;;;;;;17.11;100.00;100070.56;6270787;28;20102;-71
2023/06/07 00:40:04;;;;;;;3.30;2.50;;;;;;;17.07;100.00;100063.03;6247404;28;20390;-70
2023/06/07 00:43:05;;;;;;;4.13;2.35;;;;;;;17.03;100.00;100067.78;6244790;28;20057;-71
2023/06/07 00:46:09;;;;;;;2.88;2.38;;;;;;;17.02;100.00;100062.63;6245778;28;20077;-71
2023/06/07 00:49:16;;;;;;;3.85;2.35;;;;;;;17.02;100.00;100058.19;6277894;28;20050;-71
2023/06/07 00:52:17;;;;;;;2.80;2.15;;;;;;;17.06;100.00;100064.03;6261948;28;20091;-71
2023/06/07 00:55:18;;;;;;;3.72;2.28;;;;;;;17.05;100.00;100065.00;6245349;28;20397;-70
2023/06/07 00:58:25;;;;;;;3.75;2.00;;;;;;;17.03;100.00;100064.31;6244553;28;20509;-70
2023/06/07 01:01:27;;;;;;;3.30;2.33;;;;;;;17.04;100.00;100065.97;6251567;28;20140;-70
2023/06/07 01:04:31;;;;;;;2.83;2.28;;;;;;;17.13;100.00;100059.88;6269286;28;20053;-71
2023/06/07 01:07:32;;;;;;;3.75;2.20;;;;;;;17.08;100.00;100068.19;6272783;28;20484;-71
2023/06/07 01:10:34;;;;;;;3.97;2.47;;;;;;;17.06;100.00;100056.94;6273820;28;20051;-70
2023/06/07 01:13:37;;;;;;;4.05;2.70;;;;;;;17.03;100.00;100051.97;6256259;28;20463;-71
2023/06/07 01:16:48;;;;;;;4.85;2.63;;;;;;;16.97;100.00;100056.94;6250129;28;20056;-71
2023/06/07 01:19:53;;;;;;;2.42;2.03;;;;;;;16.85;100.00;100051.78;6249763;28;20041;-71
2023/06/07 01:22:57;;;;;;;3.65;2.30;;;;;;;16.91;100.00;100045.13;6269971;28;20061;-70
2023/06/07 01:26:00;;;;;;;6.93;2.50;;;;;;;16.93;100.00;100048.47;6274372;28;20084;-70
2023/06/07 01:29:06;;;;;;;2.75;2.05;;;;;;;16.73;100.00;100040.47;6272873;28;20127;-70
2023/06/07 01:32:09;;;;;;;3.70;2.40;;;;;;;16.81;100.00;100039.81;6267415;28;20539;-71
2023/06/07 01:35:11;;;;;;;3.97;2.22;;;;;;;16.83;100.00;100037.88;6273185;28;20098;-71
2023/06/07 01:38:12;;;;;;;;;;;;;;;16.86;100.00;100039.41;6274511;28;20049;-70
2023/06/07 01:41:17;;;;;;;9.25;2.80;;;;;;;16.81;100.00;100029.28;6271888;28;19966;-70
2023/06/07 01:44:19;;;;;;;3.10;2.25;;;;;;;16.83;100.00;100029.97;6249116;28;20559;-70
2023/06/07 01:47:20;;;;;;;3.15;2.33;;;;;;;16.84;100.00;100029.03;6249114;28;20072;-71
2023/06/07 01:50:22;;;;;;;3.20;2.40;;;;;;;16.86;100.00;100026.25;6247886;28;20405;-71
2023/06/07 01:53:23;;;;;;;3.28;2.35;;;;;;;16.84;100.00;100031.66;6248980;28;20500;-71
2023/06/07 01:56:34;;;;;;;3.10;2.22;;;;;;;16.78;100.00;100020.78;6247803;28;20053;-71
2023/06/07 02:00:05;;;;;;;3.28;2.13;;;;;;;16.88;100.00;100027.78;6247530;28;20041;-72
2023/06/07 02:03:07;;;;;;;3.58;2.45;;;;;;;16.87;100.00;100022.66;6253803;28;20051;-71
2023/06/07 02:06:11;;;;;;;3.17;2.42;;;;;;;16.87;100.00;100026.13;6273438;28;20057;-71
2023/06/07 02:09:19;;;;;;;3.58;2.40;;;;;;;16.88;100.00;100021.66;6272026;28;20049;-71
2023/06/07 02:12:21;;;;;;;3.78;2.25;;;;;;;16.90;100.00;100025.00;6271781;28;20044;-71
2023/06/07 02:15:22;;;;;;;;;;;;;;;16.90;100.00;100031.13;6272359;28;20051;-71
2023/06/07 02:18:25;;;;;;;4.15;2.70;;;;;;;16.81;100.00;100029.28;6273123;28;19921;-71
2023/06/07 02:21:26;;;;;;;4.90;2.53;;;;;;;16.87;100.00;100023.47;6268334;28;20053;-71
2023/06/07 02:24:30;;;;;;;3.45;2.53;;;;;;;16.85;100.00;100021.97;6271763;28;20140;-70
2023/06/07 02:27:31;;;;;;;2.63;2.30;;;;;;;16.86;100.00;100023.59;6271840;28;20455;-71
2023/06/07 02:30:32;;;;;;;3.80;2.80;;;;;;;16.88;100.00;100025.16;6271184;28;20041;-71
2023/06/07 02:33:35;;;;;;;2.95;2.38;;;;;;;16.85;100.00;100022.78;6258464;28;20123;-71
2023/06/07 02:36:39;;;;;;;3.33;2.50;;;;;;;16.85;100.00;100016.69;6247787;28;20481;-71
2023/06/07 02:39:40;;;;;;;13.65;2.83;;;;;;;16.86;100.00;100020.97;6247762;28;20160;-71
2023/06/07 02:42:47;;;;;;;3.67;2.47;;;;;;;16.86;100.00;100013.94;6247869;28;20501;-71
2023/06/07 02:45:48;;;;;;;3.95;2.10;;;;;;;16.89;100.00;100020.72;6247846;28;20555;-71
2023/06/07 02:48:49;;;;;;;4.80;2.80;;;;;;;16.85;100.00;100008.78;6247904;28;20128;-71
2023/06/07 02:51:50;;;;;;;4.20;2.60;;;;;;;16.79;100.00;100007.47;6247454;28;20045;-70
2023/06/07 02:54:50;;;;;;;3.20;2.60;;;;;;;16.86;100.00;100013.94;6259357;28;20049;-71
2023/06/07 02:57:53;;;;;;;3.05;2.58;;;;;;;16.91;100.00;100009.06;6271058;28;20045;-71
2023/06/07 03:00:55;;;;;;;4.22;3.05;;;;;;;16.91;100.00;100008.25;6270917;28;20053;-71
2023/06/07 03:03:57;;;;;;;6.63;2.60;;;;;;;16.88;100.00;100013.75;6258799;28;20128;-71
2023/06/07 03:07:02;;;;;;;3.53;2.78;;;;;;;16.79;100.00;100012.75;6271562;28;20057;-71
2023/06/07 03:10:06;;;;;;;4.47;3.10;;;;;;;16.82;100.00;100017.78;6271788;28;20614;-70
2023/06/07 03:13:07;;;;;;;3.55;2.55;;;;;;;16.81;100.00;100015.28;6266408;28;20486;-71
2023/06/07 03:16:07;;;;;;;5.32;2.70;;;;;;;16.86;100.00;100019.19;6246014;28;20076;-71
2023/06/07 03:19:08;;;;;;;2.97;2.38;;;;;;;16.83;100.00;100024.72;6246914;28;20091;-71
2023/06/07 03:22:09;;;;;;;3.47;2.53;;;;;;;16.87;100.00;100025.28;6246070;28;20045;-71
2023/06/07 03:25:10;;;;;;;5.53;3.10;;;;;;;16.88;100.00;100029.56;6260740;28;20099;-71
2023/06/07 03:28:13;;;;;;;3.67;3.03;;;;;;;16.91;100.00;100031.97;6245585;28;20283;-71
2023/06/07 03:31:14;;;;;;;3.53;2.58;;;;;;;16.94;100.00;100029.03;6246714;28;20053;-71
2023/06/07 03:34:15;;;;;;;5.63;3.05;;;;;;;16.93;100.00;100027.38;6254921;28;20127;-71
2023/06/07 03:37:18;;;;;;;3.25;2.33;;;;;;;16.91;100.00;100031.97;6253574;28;20544;-71
2023/06/07 03:40:19;;;;;;;3.22;2.67;;;;;;;17.00;100.00;100038.22;6271289;28;20535;-71
2023/06/07 03:43:20;;;;;;;3.22;2.63;;;;;;;16.97;100.00;100028.78;6270332;28;20045;-71
2023/06/07 03:46:20;;;;;;;2.88;2.38;;;;;;;17.01;100.00;100035.44;6246991;28;20547;-71
2023/06/07 03:49:21;;;;;;;3.60;2.67;;;;;;;17.03;100.00;100038.78;6245452;28;20504;-71
2023/06/07 03:52:22;;;;;;;7.93;3.15;;;;;;;17.00;100.00;100035.56;6245312;28;20056;-71
2023/06/07 03:55:26;;;;;;;4.20;2.83;;;;;;;17.03;100.00;100040.59;6247587;28;20092;-71
2023/06/07 03:58:30;;;;;;;4.93;3.10;;;;;;;17.04;100.00;100039.59;6262638;28;20056;-71
2023/06/07 04:01:31;;;;;;;3.40;2.65;;;;;;;17.10;100.00;100042.53;6270960;28;20411;-70
2023/06/07 04:04:33;;;;;;;3.53;2.75;;;;;;;17.18;100.00;100038.41;6253636;28;20061;-71
2023/06/07 04:07:34;;;;;;;3.55;2.70;;;;;;;17.14;100.00;100040.47;6270858;28;20443;-70
2023/06/07 04:10:35;;;;;;;3.73;2.93;;;;;;;17.23;100.00;100049.34;6270981;28;20091;-71
2023/06/07 04:13:41;;;;;;;3.85;2.70;;;;;;;17.24;100.00;100045.75;6258052;28;20470;-70
2023/06/07 04:16:42;;;;;;;5.20;2.65;;;;;;;17.21;100.00;100038.94;6246108;28;20587;-70
2023/06/07 04:19:43;;;;;;;4.13;2.77;;;;;;;17.32;100.00;100045.91;6246066;28;20180;-71
2023/06/07 04:22:44;;;;;;;3.75;3.17;;;;;;;17.31;100.00;100038.94;6246589;28;20049;-70
2023/06/07 04:25:47;;;;;;;3.10;2.75;;;;;;;17.30;100.00;100032.84;6245742;28;20057;-70
2023/06/07 04:28:49;;;;;;;6.03;2.85;;;;;;;17.34;100.00;100030.78;6246187;28;20133;-71
2023/06/07 04:31:52;;;;;;;5.53;3.17;;;;;;;17.30;100.00;100042.56;6244657;28;20515;-70
2023/06/07 04:34:53;;;;;;;4.53;3.00;;;;;;;17.36;100.00;100034.13;6245921;28;20140;-71
2023/06/07 04:37:55;;;;;;;9.18;3.20;;;;;;;17.33;100.00;100048.38;6248221;28;20119;-71
2023/06/07 04:40:56;;;;;;;4.03;2.58;;;;;;;17.25;100.00;100044.78;6263533;28;20131;-71
2023/06/07 04:44:00;;;;;;;3.85;3.22;;;;;;;17.23;100.00;100046.72;6270941;28;20444;-73
2023/06/07 04:47:01;;;;;;;6.35;2.92;;;;;;;17.19;100.00;100048.78;6255464;28;20053;-71
2023/06/07 04:50:01;;;;;;;4.80;2.80;;;;;;;17.26;100.00;100049.91;6253520;28;20485;-70
2023/06/07 04:53:02;;;;;;;8.77;3.72;;;;;;;17.24;100.00;100058.94;6243853;28;20041;-70
2023/06/07 04:56:04;;;;;;;5.10;3.47;;;;;;;17.30;100.00;100058.41;6255254;28;20095;-71
2023/06/07 04:59:08;;;;;;;6.38;3.10;;;;;;;17.27;100.00;100048.09;6265845;28;20041;-71
2023/06/07 05:02:09;;;;;;;4.72;2.85;;;;;;;17.28;100.00;100045.34;6263366;28;20056;-70
2023/06/07 05:05:10;;;;;;;3.70;2.92;;;;;;;17.40;100.00;100053.97;6269483;28;20507;-70
2023/06/07 05:08:10;;;;;;;6.07;3.05;;;;;;;17.35;100.00;100050.91;6262064;28;20459;-71
2023/06/07 05:11:11;;;;;;;6.10;3.03;;;;;;;17.33;100.00;100052.84;6259939;28;20060;-70
2023/06/07 05:14:12;;;;;;;4.20;3.17;;;;;;;17.49;100.00;100049.66;6260400;28;20058;-70
2023/06/07 05:17:16;;;;;;;4.70;2.83;;;;;;;17.55;100.00;100046.47;6261870;28;20052;-71
2023/06/07 05:20:17;;;;;;;3.03;2.45;;;;;;;17.58;100.00;100050.63;6262044;28;20056;-71
2023/06/07 05:23:18;;;;;;;4.67;2.60;;;;;;;17.57;100.00;100048.97;6267638;28;21409;-70
2023/06/07 05:26:19;;;;;;;4.82;3.00;;;;;;;17.59;100.00;100052.31;6259676;28;20064;-70
2023/06/07 05:29:20;;;;;;;4.53;3.22;;;;;;;17.57;100.00;100059.53;6248627;28;20045;-71
2023/06/07 05:32:20;;;;;;;4.05;2.92;;;;;;;17.60;100.00;100054.78;6253815;28;20056;-71
2023/06/07 05:35:21;;;;;;;2.95;2.47;;;;;;;17.64;100.00;100056.19;6271519;28;20131;-70
2023/06/07 05:38:22;;;;;;;3.40;2.67;;;;;;;17.68;100.00;100054.09;6255069;28;20405;-70
2023/06/07 05:41:23;;;;;;;3.50;2.55;;;;;;;17.76;100.00;100061.31;6259343;28;20049;-70
2023/06/07 05:44:23;;;;;;;3.40;2.80;;;;;;;17.80;100.00;100062.72;6262307;28;20049;-71
2023/06/07 05:47:27;;;;;;;5.00;3.05;;;;;;;17.94;100.00;100062.31;6264032;28;20533;-71
2023/06/07 05:50:28;;;;;;;5.57;3.50;;;;;;;17.94;100.00;100058.84;6250137;28;20137;-71
2023/06/07 05:53:29;;;;;;;4.60;3.33;;;;;;;18.01;100.00;100063.41;6249585;28;20053;-70
2023/06/07 05:56:31;;;;;;;9.98;2.95;;;;;;;17.98;100.00;100065.50;6249860;28;20104;-71
2023/06/07 05:59:32;;;;;;;7.00;3.05;;;;;;;17.98;100.00;100057.59;6254432;28;20132;-71
2023/06/07 06:02:34;;;;;;;7.30;2.77;;;;;;;18.09;100.00;100054.78;6266255;28;20045;-70
2023/06/07 06:05:35;;;;;;;4.22;2.83;;;;;;;18.17;100.00;100062.00;6252971;28;20048;-71
2023/06/07 06:08:36;;;;;;;4.13;2.88;;;;;;;17.99;100.00;100068.00;6260270;28;20513;-71
2023/06/07 06:11:36;;;;;;;4.00;2.85;;;;;;;17.96;100.00;100070.94;6263060;28;20473;-71
2023/06/07 06:14:38;;;;;;;3.13;2.63;;;;;;;17.78;100.00;100070.75;6255380;28;20060;-71
2023/06/07 06:17:39;;;;;;;8.02;2.60;;;;;;;17.67;100.00;100074.38;6259128;28;20049;-72
2023/06/07 06:20:39;;;;;;;2.67;2.30;;;;;;;17.60;100.00;100075.91;6248447;28;20091;-71
2023/06/07 06:23:43;;;;;;;7.72;2.60;;;;;;;17.33;100.00;100074.75;6265979;28;20131;-71
2023/06/07 06:26:46;;;;;;;3.42;2.40;;;;;;;17.26;100.00;100078.09;6216933;28;20679;-71
2023/06/07 06:29:47;;;;;;;5.93;2.53;;;;;;;17.02;100.00;100075.81;6240751;28;20068;-71
2023/06/07 06:32:47;;;;;;;3.85;2.22;;;;;;;16.83;100.00;100074.78;6248350;28;20050;-70
2023/06/07 06:35:48;;;;;;;3.47;2.20;;;;;;;16.91;100.00;100072.31;6248512;28;20110;-71
2023/06/07 06:38:51;;;;;;;2.72;2.05;;;;;;;16.98;100.00;100080.50;6249279;28;20049;-71
2023/06/07 06:41:52;;;;;;;5.30;2.28;;;;;;;16.84;100.00;100078.25;6250010;28;20103;-70
2023/06/07 06:44:53;;;;;;;3.47;2.25;;;;;;;16.86;100.00;100077.16;6247556;28;20053;-71
2023/06/07 06:47:54;;;;;;;5.60;2.15;;;;;;;16.89;100.00;100079.53;6248839;28;20045;-71
2023/06/07 06:50:57;;;;;;;3.15;2.30;;;;;;;17.03;100.00;100083.59;6249226;28;20044;-70
2023/06/07 06:53:58;;;;;;;3.20;2.40;;;;;;;17.06;100.00;100078.03;6252241;28;20053;-71
2023/06/07 06:56:59;;;;;;;2.97;2.10;;;;;;;17.15;100.00;100078.19;6244426;28;20580;-71
2023/06/07 07:00:00;;;;;;;3.47;2.20;;;;;;;17.24;100.00;100085.31;6246327;28;20072;-71
2023/06/07 07:03:02;;;;;;;3.75;2.38;;;;;;;17.33;100.00;100089.75;6247905;28;20084;-71
2023/06/07 07:06:03;;;;;;;2.60;2.17;;;;;;;17.33;100.00;100087.13;6244151;28;20059;-70
2023/06/07 07:09:03;;;;;;;7.22;2.35;;;;;;;17.43;100.00;100089.78;6244813;28;20049;-70
2023/06/07 07:12:05;;;;;;;5.50;2.40;;;;;;;17.35;100.00;100092.25;6246338;28;20045;-71
2023/06/07 07:15:08;;;;;;;3.28;2.17;;;;;;;17.62;100.00;100081.03;6245373;28;20134;-71
2023/06/07 07:18:09;;;;;;;5.63;2.30;;;;;;;17.78;100.00;100091.88;6242654;28;20045;-70
2023/06/07 07:21:10;;;;;;;3.88;2.58;;;;;;;18.07;100.00;100088.41;6246137;28;20049;-71
2023/06/07 07:24:14;;;;;;;3.30;2.30;;;;;;;18.13;100.00;100086.03;6248916;28;20064;-70
2023/06/07 07:27:14;;;;;;;3.72;2.05;;;;;;;18.29;100.00;100088.09;6245167;28;20390;-71
2023/06/07 07:30:15;;;;;;;3.30;2.30;;;;;;;18.37;100.00;100092.69;6251291;28;20088;-71
2023/06/07 07:33:16;;;;;;;2.42;2.10;;;;;;;18.53;100.00;100089.41;6246685;28;20405;-70
2023/06/07 07:36:21;;;;;;;2.75;2.17;;;;;;;18.63;100.00;100092.84;6252086;28;20049;-71
2023/06/07 07:39:22;;;;;;;2.53;2.03;;;;;;;18.80;100.00;100087.81;6246733;28;20049;-71
2023/06/07 07:42:27;;;;;;;7.23;2.53;;;;;;;18.95;100.00;100093.47;6244174;28;20076;-71
2023/06/07 07:45:28;;;;;;;4.93;2.10;;;;;;;18.96;100.00;100103.06;6246380;28;20111;-71
2023/06/07 07:48:29;;;;;;;2.00;1.80;;;;;;;18.68;100.00;100089.78;6238643;28;20049;-71
2023/06/07 07:51:30;;;;;;;2.65;2.03;;;;;;;18.90;100.00;100092.09;6244954;28;20053;-70
2023/06/07 07:54:31;;;;;;;3.25;1.98;;;;;;;18.90;100.00;100096.53;6245616;28;20061;-70
2023/06/07 07:57:31;;;;;;;3.33;2.40;;;;;;;18.89;100.00;100097.53;6246209;28;20534;-70
2023/06/07 08:00:32;;;;;;;2.83;2.33;;;;;;;18.90;100.00;100105.31;6245577;28;20041;-70
2023/06/07 08:03:33;;;;;;;2.03;1.67;;;;;;;18.79;100.00;100110.78;6245651;28;20060;-71
2023/06/07 08:06:35;;;;;;;5.60;2.00;;;;;;;18.80;100.00;100111.59;6245380;28;20049;-70
2023/06/07 08:09:35;;;;;;;4.18;2.00;;;;;;;18.85;100.00;100106.72;6242250;28;20053;-70
2023/06/07 08:12:36;;;;;;;4.40;1.90;;;;;;;19.00;100.00;100117.66;6242635;28;20056;-70
2023/06/07 08:15:37;;;;;;;4.45;1.70;;;;;;;19.06;100.00;100122.34;6245579;28;20052;-70
2023/06/07 08:18:38;;;;;;;3.63;2.17;;;;;;;19.13;100.00;100116.34;6249535;28;20495;-71
2023/06/07 08:21:43;;;;;;;1.77;1.63;;;;;;;19.04;100.00;100122.47;6249228;28;20061;-71
2023/06/07 08:24:47;;;;;;;3.22;1.90;;;;;;;19.04;100.00;100117.19;6247517;28;20147;-71
2023/06/07 08:27:48;;;;;;;3.05;1.95;;;;;;;19.07;100.00;100118.75;6245961;28;20502;-70
2023/06/07 08:30:51;;;;;;;2.10;1.83;;;;;;;19.14;100.00;100117.16;6245963;28;20053;-71
2023/06/07 08:33:55;;;;;;;4.85;1.98;;;;;;;19.16;100.00;100119.66;6248315;28;20056;-71
2023/06/07 08:36:57;;;;;;;4.35;2.30;;;;;;;19.28;100.00;100126.41;6247012;28;20061;-70
2023/06/07 08:39:57;;;;;;;2.70;1.75;;;;;;;19.41;100.00;100123.41;6249557;28;20061;-71
2023/06/07 08:42:58;;;;;;;3.23;2.10;;;;;;;19.40;100.00;100119.94;6247773;28;20080;-70
2023/06/07 08:46:03;;;;;;;2.03;1.80;;;;;;;19.28;100.00;100123.78;6248788;28;21063;-71
2023/06/07 08:49:05;;;;;;;2.95;1.80;;;;;;;19.33;100.00;100122.34;6253307;28;20045;-71
2023/06/07 08:52:11;;;;;;;2.03;1.80;;;;;;;19.31;100.00;100120.81;6249935;28;20052;-71
2023/06/07 08:55:14;;;;;;;4.70;1.95;;;;;;;19.29;100.00;100122.78;6251984;28;20049;-70
2023/06/07 08:58:16;;;;;;;2.25;1.85;;;;;;;19.21;100.00;100117.41;6253087;28;20052;-71
2023/06/07 09:01:20;;;;;;;2.50;1.77;;;;;;;19.40;100.00;100121.75;6249630;28;20405;-71
2023/06/07 09:04:21;;;;;;;4.00;2.25;;;;;;;19.36;100.00;100115.94;6253968;28;20061;-70
2023/06/07 09:07:22;;;;;;;3.37;2.50;;;;;;;19.43;100.00;100114.34;6248941;28;20049;-71
2023/06/07 09:10:23;;;;;;;5.87;2.00;;;;;;;19.53;100.00;100120.41;6248337;28;20278;-71
2023/06/07 09:13:24;;;;;;;2.23;1.97;;;;;;;19.68;100.00;100120.72;6249085;28;20291;-71
2023/06/07 09:16:25;;;;;;;2.90;2.07;;;;;;;19.91;100.00;100121.13;6249190;28;20054;-71
2023/06/07 09:19:31;;;;;;;1.92;1.73;;;;;;;20.17;100.00;100116.84;6246496;28;20053;-71
2023/06/07 09:22:33;;;;;;;4.05;2.20;;;;;;;20.31;100.00;100122.41;6249739;28;20046;-70
2023/06/07 09:25:34;;;;;;;3.95;2.20;;;;;;;20.58;100.00;100119.78;6251078;28;20057;-71
2023/06/07 09:28:37;;;;;;;3.83;2.00;;;;;;;20.71;100.00;100118.41;6251802;28;20045;-70
2023/06/07 09:31:38;;;;;;;3.15;1.92;;;;;;;20.78;100.00;100118.59;6251733;28;20052;-70
2023/06/07 09:34:41;;;;;;;3.63;2.30;;;;;;;20.81;100.00;100117.44;6251069;28;20056;-71
2023/06/07 09:37:46;;;;;;;3.30;1.90;;;;;;;20.69;100.00;100119.53;6253541;28;20045;-71
2023/06/07 09:40:51;;;;;;;7.55;2.28;;;;;;;20.99;100.00;100120.84;6250831;28;20049;-71
2023/06/07 09:43:54;;;;;;;2.40;2.17;;;;;;;20.81;100.00;100107.66;6249114;28;20565;-70
2023/06/07 09:46:56;;;;;;;2.72;2.13;;;;;;;21.03;100.00;100116.06;6251407;28;20168;-70
2023/06/07 09:50:06;;;;;;;;;;;;;;;20.85;100.00;100113.47;6249814;28;20254;-70
2023/06/07 09:53:09;;;;;;;2.53;2.00;;;;;;;21.26;100.00;100111.00;6248763;28;19944;-70
2023/06/07 09:56:16;;;;;;;3.05;2.13;;;;;;;21.36;100.00;100108.22;6250489;28;20059;-70
2023/06/07 09:59:17;;;;;;;2.90;2.60;;;;;;;21.46;100.00;100111.56;6253797;28;20049;-70
2023/06/07 10:02:26;;;;;;;5.13;2.13;;;;;;;21.42;100.00;100110.22;6252709;28;20054;-70
2023/06/07 10:05:32;;;;;;;2.28;2.03;;;;;;;21.22;100.00;100107.81;6247300;28;20061;-70
2023/06/07 10:08:33;;;;;;;3.63;2.03;;;;;;;21.16;100.00;100105.81;6244972;28;20053;-70
2023/06/07 10:11:36;;;;;;;4.90;2.30;;;;;;;20.82;100.00;100108.50;6248474;28;20049;-70
2023/06/07 10:14:40;;;;;;;4.70;2.67;;;;;;;21.09;100.00;100092.38;6249644;28;20489;-70
2023/06/07 10:18:19;;;;;;;3.90;1.98;;;;;;;21.09;100.00;100099.50;6250406;28;20060;-69
2023/06/07 10:21:21;;;;;;;4.28;2.38;;;;;;;21.44;100.00;100097.63;6233966;28;20056;-70
2023/06/07 10:24:36;;;;;;;4.25;2.20;;;;;;;21.48;100.00;100096.31;6249178;28;20076;-70
2023/06/07 10:28:02;;;;;;;2.97;2.05;;;;;;;21.80;100.00;100097.34;6241333;28;20049;-70
2023/06/07 10:31:08;;;;;;;3.67;2.35;;;;;;;21.76;100.00;100096.81;6251279;28;20049;-71
2023/06/07 10:34:10;;;;;;;5.10;2.22;;;;;;;21.76;100.00;100093.34;6245416;28;20474;-70
2023/06/07 10:37:13;;;;;;;2.15;1.95;;;;;;;21.78;98.70;100091.34;6250047;28;20071;-70
2023/06/07 10:40:14;;;;;;;3.60;1.52;;;;;;;21.46;100.00;100088.50;6247624;28;20049;-71
2023/06/07 10:43:16;;;;;;;4.03;2.05;;;;;;;21.37;100.00;100083.31;6247177;28;20084;-71
2023/06/07 10:46:19;;;;;;;2.03;1.70;;;;;;;21.25;100.00;100088.09;6247066;28;20049;-71
2023/06/07 10:49:46;;;;;;;3.67;2.25;;;;;;;21.34;98.54;100087.94;6250508;28;20076;-70
2023/06/07 10:52:56;;;;;;;3.65;2.00;;;;;;;21.51;100.00;100086.19;6250061;28;20065;-71
2023/06/07 10:56:36;;;;;;;7.82;2.25;;;;;;;21.78;97.76;100088.72;6245587;28;20250;-70
2023/06/07 10:59:38;;;;;;;2.13;1.75;;;;;;;21.98;96.80;100082.06;6253211;28;20470;-70
2023/06/07 11:02:39;;;;;;;4.65;1.95;;;;;;;21.98;96.71;100079.41;6252013;28;20443;-70
2023/06/07 11:05:58;;;;;;;2.83;1.93;;;;;;;21.94;94.69;100088.72;6252378;28;20049;-69
2023/06/07 11:09:18;;;;;;;3.65;2.42;;;;;;;21.97;94.70;100080.41;6245945;28;20053;-70
2023/06/07 11:12:43;;;;;;;4.22;2.20;;;;;;;21.85;94.73;100079.91;6248469;28;20049;-70
2023/06/07 11:15:44;;;;;;;7.45;2.35;;;;;;;21.76;98.53;100075.59;6249901;28;20054;-70
2023/06/07 11:19:05;;;;;;;3.83;1.97;;;;;;;21.57;96.63;100078.56;6243823;28;20132;-69
2023/06/07 11:22:06;;;;;;;4.45;2.50;;;;;;;21.74;99.92;100072.25;6247540;28;20385;-70
2023/06/07 11:25:17;;;;;;;3.42;2.25;;;;;;;22.06;95.58;100074.09;6247275;28;20057;-70
2023/06/07 11:28:22;;;;;;;4.45;2.40;;;;;;;22.09;94.31;100075.56;6243846;28;20049;-70
2023/06/07 11:31:25;;;;;;;3.25;2.00;;;;;;;22.31;96.89;100071.44;6245600;28;20057;-69
2023/06/07 11:34:31;;;;;;;3.25;1.98;;;;;;;22.32;95.34;100073.91;6259429;28;20053;-70
2023/06/07 11:37:32;;;;;;;5.03;1.98;;;;;;;22.30;95.49;100067.13;6247354;28;20100;-70
2023/06/07 11:40:32;;;;;;;2.20;1.88;;;;;;;22.15;100.00;100072.25;6250831;28;20473;-70
2023/06/07 11:43:33;;;;;;;7.17;2.10;;;;;;;22.04;100.00;100069.94;6233116;28;20104;-70
2023/06/07 11:46:35;;;;;;;4.80;2.10;;;;;;;21.97;100.00;100071.59;6240456;28;20871;-70
2023/06/07 11:49:40;;;;;;;2.83;1.92;;;;;;;21.90;100.00;100071.44;6230518;28;20561;-69
2023/06/07 11:52:43;;;;;;;2.75;2.05;;;;;;;21.85;100.00;100065.81;6249687;28;20099;-70
2023/06/07 11:55:46;;;;;;;2.65;2.03;;;;;;;21.67;100.00;100055.34;6253071;28;20064;-70
2023/06/07 11:58:46;;;;;;;2.88;1.92;;;;;;;21.62;100.00;100062.97;6251250;28;20053;-70
2023/06/07 12:01:52;;;;;;;4.13;2.07;;;;;;;21.34;96.96;100052.63;6258065;28;20122;-70
2023/06/07 12:04:53;;;;;;;2.65;2.30;;;;;;;21.38;96.65;100050.50;6246348;28;20053;-70
2023/06/07 12:07:55;;;;;;;5.07;2.17;;;;;;;21.40;100.00;100045.84;6255502;28;20053;-69
2023/06/07 12:10:57;;;;;;;3.90;2.22;;;;;;;21.52;100.00;100047.22;6250374;28;20421;-69
2023/06/07 12:14:00;;;;;;;4.53;2.33;;;;;;;21.85;100.00;100044.56;6246576;28;20049;-70
2023/06/07 12:17:01;;;;;;;4.07;2.13;;;;;;;21.98;100.00;100044.06;6248403;28;20063;-70
2023/06/07 12:20:10;;;;;;;4.47;2.00;;;;;;;22.02;100.00;100042.72;6270865;28;20477;-69
2023/06/07 12:23:13;;;;;;;6.97;2.40;;;;;;;22.06;96.79;100038.72;6251477;28;20041;-70
2023/06/07 12:26:15;;;;;;;2.58;1.88;;;;;;;22.06;96.09;100036.88;6246938;28;20045;-69
2023/06/07 12:29:16;;;;;;;4.00;2.10;;;;;;;22.04;97.79;100030.91;6254306;28;20056;-70
2023/06/07 12:32:21;;;;;;;3.47;2.47;;;;;;;22.00;96.47;100042.88;6259152;28;20053;-69
2023/06/07 12:35:22;;;;;;;4.00;2.20;;;;;;;22.09;92.71;100033.91;6257668;28;20536;-69
2023/06/07 12:38:24;;;;;;;2.50;1.87;;;;;;;22.31;87.60;100031.56;6271539;28;20049;-70
2023/06/07 12:41:29;;;;;;;2.90;2.20;;;;;;;22.66;93.81;100018.81;6266468;28;20107;-69
2023/06/07 12:44:30;;;;;;;3.53;2.13;;;;;;;22.98;90.54;100025.81;6255831;28;20662;-70
2023/06/07 12:47:31;;;;;;;4.53;1.93;;;;;;;23.20;89.21;100031.34;6252758;28;20057;-69
2023/06/07 12:50:32;;;;;;;3.83;2.23;;;;;;;23.19;84.99;100025.22;6255691;28;20052;-69
2023/06/07 12:53:33;;;;;;;3.15;2.20;;;;;;;23.08;89.11;100021.13;6254990;28;20061;-70
2023/06/07 12:56:34;;;;;;;3.00;1.90;;;;;;;22.99;84.18;100021.31;6256201;28;20050;-70
2023/06/07 12:59:35;;;;;;;3.67;2.25;;;;;;;23.10;82.64;100015.59;6251060;28;20049;-70
2023/06/07 13:02:37;;;;;;;5.82;2.25;;;;;;;23.08;83.83;100010.47;6224562;28;20050;-70
2023/06/07 13:05:37;;;;;;;3.80;2.17;;;;;;;23.15;88.31;100005.28;6256819;28;20131;-69
2023/06/07 13:08:38;;;;;;;3.70;2.50;;;;;;;22.78;84.52;100005.97;6260801;28;20056;-70
2023/06/07 13:11:41;;;;;;;3.87;2.27;;;;;;;22.77;90.90;100005.13;6259087;28;20143;-68
2023/06/07 13:14:44;;;;;;;4.45;2.47;;;;;;;22.62;87.25;99999.72;6254790;28;20053;-69
2023/06/07 13:17:47;;;;;;;5.25;2.00;;;;;;;22.58;88.46;99994.91;6266017;28;20045;-70
2023/06/07 13:20:49;;;;;;;2.35;1.80;;;;;;;22.64;95.66;99991.56;6271349;28;20440;-70
2023/06/07 13:23:50;;;;;;;2.65;1.92;;;;;;;22.58;88.20;99992.25;6273220;28;20080;-70
2023/06/07 13:26:51;;;;;;;5.27;2.60;;;;;;;22.38;87.00;99981.19;6269800;28;20067;-70
2023/06/07 13:29:55;;;;;;;2.07;1.77;;;;;;;22.39;88.71;99982.88;6261389;28;20383;-70
2023/06/07 13:32:58;;;;;;;3.22;1.92;;;;;;;22.36;85.97;99977.88;6253192;28;20409;-70
2023/06/07 13:35:58;;;;;;;5.18;2.03;;;;;;;22.30;89.97;99966.13;6259095;28;20084;-70
2023/06/07 13:38:59;;;;;;;3.00;2.07;;;;;;;22.42;89.04;99963.91;6246675;28;20412;-70
2023/06/07 13:42:00;;;;;;;4.27;2.07;;;;;;;22.57;89.16;99972.81;6260460;28;20124;-69
2023/06/07 13:45:01;;;;;;;2.60;1.87;;;;;;;22.52;85.80;99961.88;6263675;28;20049;-70
2023/06/07 13:48:02;;;;;;;2.87;1.87;;;;;;;22.50;87.47;99970.00;6264451;28;20076;-70
2023/06/07 13:51:04;;;;;;;2.67;2.08;;;;;;;22.57;93.69;99966.66;6261732;28;20652;-69
2023/06/07 13:54:05;;;;;;;;;;;;;;;22.67;89.61;99964.59;6259509;28;20494;-70
2023/06/07 13:57:06;;;;;;;3.20;1.90;;;;;;;22.58;88.90;99966.50;6253524;28;19921;-70
2023/06/07 14:00:08;;;;;;;3.87;2.30;;;;;;;22.40;85.50;99965.91;6254799;28;20045;-69
2023/06/07 14:03:09;;;;;;;4.03;2.63;;;;;;;22.47;92.36;99967.72;6265644;28;20096;-69